New York, NY

6:52 PM EST on February 06, 2016 (GMT -0500)
Marcus Garvey Park | | Change Station
CLOSE
Current Station
Personal Weather Station
Location: New York, NY
Elevation: 36 ft
Nearby Weather Stations

Elev 36 ft 40.80 °N, 73.94 °W | Updated 1 second ago

Clear
Clear
39.2 °F
Feels Like 31 °F
N
13.0
Wind Variable Wind from SSW
Gusts 15.0 mph

Today
High -- | Low -- °F
--% Chance of Precip.
Yesterday
High -- | Low -- °F
Precip. -- in
Pressure 30.29 in
Visibility 10.0 miles
Clouds Clear
Windchill 31 °F
Dew Point 4 °F
Humidity 23%
Rainfall 0.00 in
Snow Depth Not available.
7:01 AM 5:18 PM
Waning Crescent, 3% visible
METAR KNYC 062251Z AUTO VRB05G15KT 10SM CLR 04/M08 A3030 RMK AO2 SLP255 T00391083 $
Pressure 30.29 in
Visibility 10.0 miles
Clouds Clear
Windchill 31 °F
Dew Point 4 °F
Humidity 23%
Rainfall 0.00 in
Snow Depth Not available.
7:01 AM 5:18 PM
Waning Crescent, 3% visible
METAR KNYC 062251Z AUTO VRB05G15KT 10SM CLR 04/M08 A3030 RMK AO2 SLP255 T00391083 $

10-Day Weather Forecast

Almanac

Astronomy

Feb. 06, 2016 Rise Set
Actual Time
Civil Twilight
Nautical Twilight
Astronomical Twilight
Moon
Length of Visible Light
Length of Day
Tomorrow will be .
, % of the Moon is Illuminated

Today's Extremes

State Highs State Lows

Community

WunderPhotos

Upload Photos

1,891,098 photos uploaded!

WunderBlog® & News

Nearby

Air Quality

  Air Quality AQ Index Pollutant
Not available.

Snow Depth

Station Depth Elevation

Earthquake Activity

City Distance Mag. Time & Date
Minimum magnitude displayed is 2.5.

Coastal Water Temperatures

Place Temperature

Stations

Nearby Weather Stations

Station Location Temp. Windchill Dew Point Humidity Wind Precip. Elev Updated Type
                   

Watches & Warnings

There are currently no watches in effect.